createdAt,value
2022-07-26T00:00:54.235Z,10.27
2022-07-26T00:05:56.477Z,6.78
2022-07-26T00:10:58.776Z,7.45
2022-07-26T00:16:01.039Z,5.85
2022-07-26T00:21:03.419Z,7.68
2022-07-26T00:26:05.478Z,4.30
2022-07-26T00:31:07.877Z,6.07
2022-07-26T00:36:10.058Z,11.48
2022-07-26T00:41:12.162Z,8.52
2022-07-26T00:46:14.323Z,6.63
2022-07-26T00:51:16.562Z,6.88
2022-07-26T00:56:18.866Z,8.82
2022-07-26T01:01:20.999Z,12.45
2022-07-26T01:06:27.137Z,8.48
2022-07-26T01:11:29.497Z,5.40
2022-07-26T01:16:31.827Z,10.13
2022-07-26T01:21:33.983Z,8.13
2022-07-26T01:26:36.147Z,7.90
2022-07-26T01:31:38.406Z,10.52
2022-07-26T01:36:40.523Z,11.23
2022-07-26T01:41:42.592Z,15.10
2022-07-26T01:46:44.706Z,11.90
2022-07-26T01:51:46.934Z,8.88
2022-07-26T01:56:49.233Z,14.32
2022-07-26T02:01:52.035Z,8.52
2022-07-26T02:06:54.284Z,7.65
2022-07-26T02:11:56.362Z,12.40
2022-07-26T02:17:00.207Z,8.35
2022-07-26T02:22:02.492Z,9.65
2022-07-26T02:27:04.781Z,8.80
2022-07-26T02:32:07.094Z,13.05
2022-07-26T02:37:09.185Z,11.02
2022-07-26T02:42:11.278Z,11.15
2022-07-26T02:47:13.329Z,10.77
2022-07-26T02:52:15.408Z,11.10
2022-07-26T02:57:17.577Z,9.52
2022-07-26T03:02:19.654Z,10.85
2022-07-26T03:07:21.706Z,10.35
2022-07-26T03:12:24.240Z,12.60
2022-07-26T03:17:26.328Z,11.05
2022-07-26T03:22:28.443Z,9.05
2022-07-26T03:27:30.551Z,8.20
2022-07-26T03:32:32.654Z,10.77
2022-07-26T03:37:44.800Z,10.63
2022-07-26T03:42:48.507Z,7.32
2022-07-26T03:47:50.552Z,8.70
2022-07-26T03:52:52.661Z,8.70
2022-07-26T03:57:54.654Z,11.93
2022-07-26T04:02:56.744Z,11.25
2022-07-26T04:07:58.783Z,12.40
2022-07-26T04:13:01.363Z,5.60
2022-07-26T04:18:03.543Z,9.13
2022-07-26T04:23:10.719Z,7.10
2022-07-26T04:28:14.537Z,9.57
2022-07-26T04:33:16.574Z,7.30
2022-07-26T04:38:18.750Z,7.00
2022-07-26T04:43:20.945Z,13.07
2022-07-26T04:48:23.368Z,9.93
2022-07-26T04:53:25.412Z,11.82
2022-07-26T04:58:27.586Z,9.52
2022-07-26T05:03:29.575Z,6.30
2022-07-26T05:08:31.656Z,7.40
2022-07-26T05:13:33.685Z,6.80
2022-07-26T05:18:43.914Z,8.93
2022-07-26T05:23:50.696Z,8.85
2022-07-26T05:28:52.909Z,5.53
2022-07-26T05:33:55.299Z,8.18
2022-07-26T05:38:57.362Z,6.53
2022-07-26T05:43:59.456Z,10.50
2022-07-26T05:49:01.735Z,6.45
2022-07-26T05:54:04.144Z,7.35
2022-07-26T05:59:06.273Z,10.18
2022-07-26T06:04:09.406Z,7.10
2022-07-26T06:09:11.995Z,5.70
2022-07-26T06:14:14.564Z,9.75
2022-07-26T06:19:16.945Z,8.93
2022-07-26T06:24:18.973Z,6.57
2022-07-26T06:29:21.737Z,6.70
2022-07-26T06:34:24.323Z,6.32
2022-07-26T06:39:26.558Z,6.78
2022-07-26T06:44:28.598Z,6.35
2022-07-26T06:49:30.700Z,10.73
2022-07-26T06:54:32.764Z,7.50
2022-07-26T06:59:34.925Z,6.95
2022-07-26T07:04:37.048Z,7.50
2022-07-26T07:09:39.461Z,6.30
2022-07-26T07:14:41.851Z,6.35
2022-07-26T07:19:43.926Z,7.50
2022-07-26T07:24:46.603Z,8.20
2022-07-26T07:29:48.939Z,5.30
2022-07-26T07:34:50.995Z,2.13
2022-07-26T07:39:53.098Z,2.67
2022-07-26T07:44:56.312Z,4.32
2022-07-26T07:49:58.325Z,4.38
2022-07-26T07:55:21.852Z,3.10
2022-07-26T08:00:27.491Z,2.00
2022-07-26T08:05:29.682Z,2.45
2022-07-26T08:10:31.928Z,3.35
2022-07-26T08:15:34.055Z,3.85
2022-07-26T08:20:36.088Z,4.57
2022-07-26T08:25:50.073Z,2.53
2022-07-26T08:30:59.294Z,4.53
2022-07-26T08:36:01.693Z,4.15
2022-07-26T08:41:03.845Z,3.75
2022-07-26T08:46:06.041Z,6.13
2022-07-26T08:51:11.004Z,5.03
2022-07-26T08:56:13.894Z,5.88
2022-07-26T09:01:16.046Z,5.88
2022-07-26T09:06:20.655Z,3.70
2022-07-26T09:11:30.259Z,4.55
2022-07-26T09:16:37.265Z,2.75
2022-07-26T09:21:40.249Z,2.03
2022-07-26T09:26:55.223Z,3.42
2022-07-26T09:32:18.868Z,2.95
2022-07-26T09:37:38.045Z,2.90
2022-07-26T09:43:06.557Z,2.60
2022-07-26T09:53:14.168Z,4.80
2022-07-26T09:58:17.558Z,4.75
2022-07-26T10:03:19.926Z,1.40
2022-07-26T10:08:22.183Z,1.40
2022-07-26T10:13:27.193Z,1.90
2022-07-26T10:18:39.001Z,2.33
2022-07-26T10:24:01.591Z,2.63
2022-07-26T10:29:16.029Z,2.70
2022-07-26T10:34:58.879Z,2.90
2022-07-26T10:40:19.254Z,3.67
2022-07-26T10:45:22.811Z,2.33
2022-07-26T10:50:33.427Z,3.22
2022-07-26T10:55:51.512Z,4.28
2022-07-26T11:01:03.312Z,3.63
2022-07-26T11:06:27.718Z,3.15
2022-07-26T11:11:31.724Z,4.07
2022-07-26T11:16:45.291Z,5.45
2022-07-26T11:21:54.162Z,6.93
2022-07-26T11:26:57.220Z,2.55
2022-07-26T11:32:18.823Z,8.35
2022-07-26T11:37:21.194Z,6.30
2022-07-26T11:42:26.071Z,3.47
2022-07-26T11:47:28.231Z,1.70
2022-07-26T11:52:33.331Z,2.70
2022-07-26T11:57:35.792Z,2.78
2022-07-26T12:02:42.531Z,4.97
2022-07-26T12:08:04.732Z,4.00
2022-07-26T12:13:15.464Z,7.60
2022-07-26T12:18:28.047Z,5.57
2022-07-26T12:23:48.282Z,3.08
2022-07-26T12:28:50.933Z,5.53
2022-07-26T12:33:53.345Z,4.55
2022-07-26T12:38:56.809Z,5.78
2022-07-26T12:43:59.734Z,3.95
2022-07-26T12:49:05.675Z,3.47
2022-07-26T12:54:08.878Z,3.45
2022-07-26T12:59:12.395Z,3.35
2022-07-26T13:04:20.247Z,5.38
2022-07-26T13:09:22.464Z,4.90
2022-07-26T13:14:24.623Z,3.97
2022-07-26T13:19:27.365Z,2.35
2022-07-26T13:24:32.631Z,3.85
2022-07-26T13:29:36.480Z,2.38
2022-07-26T13:34:40.972Z,5.57
2022-07-26T13:39:44.438Z,6.47
2022-07-26T13:44:46.651Z,4.03
2022-07-26T13:49:49.117Z,6.75
2022-07-26T13:54:51.229Z,2.97
2022-07-26T13:59:53.339Z,3.58
2022-07-26T14:04:55.388Z,2.63
2022-07-26T14:09:57.395Z,5.63
2022-07-26T14:14:59.499Z,3.30
2022-07-26T14:20:02.147Z,3.88
2022-07-26T14:25:05.968Z,4.25
2022-07-26T14:30:08.487Z,3.13
2022-07-26T14:35:10.679Z,2.03
2022-07-26T14:40:15.143Z,5.50
2022-07-26T14:45:17.440Z,3.42
2022-07-26T14:50:19.533Z,5.53
2022-07-26T15:00:41.476Z,3.45
2022-07-26T15:05:43.577Z,6.70
2022-07-26T15:10:45.863Z,2.70
2022-07-26T15:15:47.934Z,4.30
2022-07-26T15:20:50.445Z,4.50
2022-07-26T15:25:52.604Z,3.08
2022-07-26T15:30:54.917Z,4.03
2022-07-26T15:35:57.220Z,3.60
2022-07-26T15:40:59.386Z,4.78
2022-07-26T15:46:01.538Z,3.10
2022-07-26T15:51:05.568Z,7.25
2022-07-26T15:56:08.302Z,4.57
2022-07-26T16:01:10.534Z,3.40
2022-07-26T16:06:12.616Z,3.80
2022-07-26T16:11:14.760Z,5.30
2022-07-26T16:16:16.914Z,2.95
2022-07-26T16:21:19.233Z,6.32
2022-07-26T16:26:21.227Z,2.92
2022-07-26T16:31:23.280Z,7.38
2022-07-26T16:36:25.891Z,2.72
2022-07-26T16:41:29.029Z,5.25
2022-07-26T16:46:31.397Z,3.75
2022-07-26T16:51:33.557Z,3.92
2022-07-26T16:56:35.873Z,3.08
2022-07-26T17:01:38.074Z,4.50
2022-07-26T17:06:40.183Z,4.45
2022-07-26T17:11:42.447Z,3.88
2022-07-26T17:16:44.668Z,4.22
2022-07-26T17:21:46.839Z,5.38
2022-07-26T17:26:48.951Z,2.95
2022-07-26T17:31:51.097Z,3.28
2022-07-26T17:37:01.082Z,5.53
2022-07-26T17:42:03.155Z,2.47
2022-07-26T17:47:05.400Z,3.60
2022-07-26T17:52:27.258Z,6.18
2022-07-26T17:57:29.675Z,3.85
2022-07-26T18:02:31.716Z,2.22
2022-07-26T18:07:33.779Z,6.85
2022-07-26T18:12:35.876Z,3.50
2022-07-26T18:17:38.081Z,6.18
2022-07-26T18:22:40.151Z,8.30
2022-07-26T18:27:43.202Z,4.75
2022-07-26T18:32:45.321Z,4.18
2022-07-26T18:37:47.532Z,3.58
2022-07-26T18:42:49.538Z,3.30
2022-07-26T18:47:51.669Z,4.53
2022-07-26T18:52:55.822Z,3.85
2022-07-26T18:57:59.995Z,11.48
2022-07-26T19:03:05.741Z,2.70
2022-07-26T19:08:09.267Z,6.30
2022-07-26T19:13:11.316Z,5.18
2022-07-26T19:18:16.048Z,2.20
2022-07-26T19:23:18.117Z,4.57
2022-07-26T19:28:20.283Z,2.67
2022-07-26T19:33:22.643Z,5.25
2022-07-26T19:38:24.961Z,5.72
2022-07-26T19:43:27.794Z,5.28
2022-07-26T19:48:29.919Z,4.85
2022-07-26T19:53:34.444Z,3.50
2022-07-26T19:58:36.645Z,4.65
2022-07-26T20:03:38.890Z,2.22
2022-07-26T20:08:41.439Z,3.05
2022-07-26T20:13:43.741Z,6.25
2022-07-26T20:18:45.773Z,4.38
2022-07-26T20:23:47.985Z,2.88
2022-07-26T20:28:50.889Z,3.20
2022-07-26T20:33:53.107Z,4.38
2022-07-26T20:38:55.347Z,3.90
2022-07-26T20:43:57.520Z,5.00
2022-07-26T20:48:59.709Z,2.20
2022-07-26T20:54:01.850Z,4.18
2022-07-26T20:59:04.573Z,7.88
2022-07-26T21:04:06.648Z,3.47
2022-07-26T21:09:09.942Z,4.55
2022-07-26T21:14:12.427Z,2.63
2022-07-26T21:19:14.862Z,3.42
2022-07-26T21:24:17.342Z,4.95
2022-07-26T21:29:19.340Z,2.22
2022-07-26T21:34:21.466Z,4.60
2022-07-26T21:39:23.526Z,4.05
2022-07-26T21:44:26.704Z,1.42
2022-07-26T21:49:28.784Z,3.03
2022-07-26T21:54:30.858Z,4.47
2022-07-26T21:59:32.964Z,5.47
2022-07-26T22:04:34.969Z,5.63
2022-07-26T22:09:37.034Z,2.65
2022-07-26T22:14:39.131Z,1.83
2022-07-26T22:19:41.297Z,2.75
2022-07-26T22:24:43.343Z,2.25
2022-07-26T22:29:45.349Z,3.65
2022-07-26T22:34:47.399Z,3.08
2022-07-26T22:39:49.660Z,2.47
2022-07-26T22:44:51.779Z,2.75
2022-07-26T22:49:53.881Z,5.47
2022-07-26T22:54:56.020Z,2.33
2022-07-26T22:59:58.105Z,3.08
2022-07-26T23:05:00.117Z,2.63
2022-07-26T23:10:05.699Z,1.95
2022-07-26T23:15:08.339Z,1.88
2022-07-26T23:20:12.181Z,4.05
2022-07-26T23:25:14.180Z,2.72
2022-07-26T23:30:16.336Z,2.50
2022-07-26T23:35:18.590Z,2.95
2022-07-26T23:40:21.508Z,4.90
2022-07-26T23:45:23.733Z,5.25
2022-07-26T23:50:25.794Z,4.15
2022-07-26T23:55:28.662Z,2.63
